Time;durP1;ratioP1;P1;durP2;ratioP2;P2;SDS_P1;SDS_P2;PMS_P1;PMS_P2;Temp;Humidity;BMP_temperature;BMP_pressure;BME280_temperature;BME280_humidity;BME280_pressure;Samples;Min_cycle;Max_cycle;Signal;HPM_P1;HPM_P2
2021/01/01 00:01:35;;;;;;;256.43;170.27;;;0.20;99.90;;;-2.62;100.00;99341.06;4889214;28;102072;-65
2021/01/01 00:04:04;;;;;;;245.60;167.63;;;0.20;99.90;;;-2.59;100.00;99340.84;4906385;28;101498;-68
2021/01/01 00:06:43;;;;;;;;;;;;;;;;;;;;;
2021/01/01 00:09:12;;;;;;;222.30;143.87;;;0.30;99.90;;;-2.17;100.00;99351.16;4906569;28;100191;-67
2021/01/01 00:11:39;;;;;;;272.77;191.27;;;0.40;99.90;;;-2.40;100.00;99351.84;4905475;28;100147;-66
2021/01/01 00:14:07;;;;;;;274.57;176.90;;;0.30;99.90;;;-2.50;100.00;99349.91;4917833;28;100377;-69
2021/01/01 00:16:34;;;;;;;289.97;199.80;;;0.40;99.90;;;-2.53;100.00;99356.19;4926182;28;100129;-67
2021/01/01 00:19:05;;;;;;;271.60;186.57;;;0.50;99.90;;;-2.54;100.00;99352.72;4925794;28;100386;-67
2021/01/01 00:21:33;;;;;;;231.13;153.40;;;0.40;99.90;;;-2.50;100.00;99350.75;4925140;28;101087;-68
2021/01/01 00:24:00;;;;;;;222.83;149.03;;;0.40;99.90;;;-2.46;100.00;99349.59;4919397;28;100156;-67
2021/01/01 00:26:27;;;;;;;230.83;155.67;;;0.30;99.90;;;-2.38;100.00;99354.34;4906571;28;100131;-67
2021/01/01 00:28:54;;;;;;;216.87;143.17;;;1.10;99.90;;;-2.38;100.00;99360.44;4908456;28;100097;-65
2021/01/01 00:31:23;;;;;;;199.23;135.37;;;0.40;99.90;;;-2.13;100.00;99357.06;4925957;28;100832;-66
2021/01/01 00:33:53;;;;;;;202.63;137.23;;;0.60;99.90;;;-2.17;100.00;99361.66;4926100;28;100947;-67
2021/01/01 00:36:22;;;;;;;198.10;135.40;;;0.60;99.90;;;-2.00;100.00;99349.22;4925802;28;100115;-68
2021/01/01 00:38:51;;;;;;;193.53;126.40;;;0.90;99.90;;;-2.19;100.00;99362.69;4926327;28;100272;-67
2021/01/01 00:41:24;;;;;;;173.30;119.10;;;0.90;99.90;;;-2.19;100.00;99353.03;4924650;28;101639;-68
2021/01/01 00:43:52;;;;;;;163.30;114.53;;;0.70;99.90;;;-2.27;100.00;99351.88;4925946;28;100273;-67
2021/01/01 00:46:20;;;;;;;137.80;96.97;;;0.70;99.90;;;-2.06;100.00;99360.94;4925203;28;100071;-66
2021/01/01 00:49:12;;;;;;;163.90;108.73;;;0.70;99.90;;;-2.16;100.00;99359.88;4919770;28;100140;-67
2021/01/01 00:51:39;;;;;;;116.13;78.57;;;0.80;99.90;;;-2.13;100.00;99361.47;4921003;28;101676;-65
2021/01/01 00:54:06;;;;;;;114.67;78.47;;;1.80;99.90;;;-2.00;100.00;99362.34;4906442;28;100522;-67
2021/01/01 00:56:33;;;;;;;106.13;73.90;;;0.90;99.90;;;-2.03;100.00;99358.13;4913879;28;100086;-67
2021/01/01 00:58:59;;;;;;;87.10;60.60;;;0.70;99.90;;;-2.02;100.00;99358.97;4925424;28;100157;-67
2021/01/01 01:01:28;;;;;;;82.10;55.47;;;0.80;99.90;;;-1.98;100.00;99363.88;4925750;28;100751;-69
2021/01/01 01:03:57;;;;;;;82.23;57.27;;;0.90;99.90;;;-2.03;100.00;99357.28;4926180;28;100316;-69
2021/01/01 01:06:41;;;;;;;64.77;46.93;;;0.90;99.90;;;-2.05;100.00;99353.91;4926196;28;100422;-65
2021/01/01 01:09:08;;;;;;;54.90;40.67;;;1.00;99.90;;;-2.06;100.00;99360.09;4923715;28;99892;-66
2021/01/01 01:11:35;;;;;;;57.13;41.03;;;0.80;99.90;;;-2.01;100.00;99360.66;4924800;28;101656;-66
2021/01/01 01:14:03;;;;;;;50.50;39.03;;;0.90;99.90;;;-2.04;100.00;99359.06;4925172;28;100644;-65
2021/01/01 01:16:32;;;;;;;59.00;39.50;;;1.20;99.90;;;-2.02;100.00;99365.06;4924966;28;100213;-67
2021/01/01 01:19:00;;;;;;;52.57;36.23;;;0.80;99.90;;;-1.99;100.00;99362.22;4926051;28;100215;-66
2021/01/01 01:21:27;;;;;;;46.43;33.70;;;0.90;99.90;;;-2.01;100.00;99360.66;4907090;28;100878;-68
2021/01/01 01:23:56;;;;;;;50.40;33.60;;;1.00;99.90;;;-2.03;100.00;99363.38;4905873;28;100370;-66
2021/01/01 01:26:23;;;;;;;48.20;32.10;;;0.90;99.90;;;-1.98;100.00;99369.13;4905952;28;100150;-67
2021/01/01 01:28:50;;;;;;;46.07;32.60;;;0.90;99.90;;;-1.96;100.00;99364.63;4906358;28;100331;-67
2021/01/01 01:31:18;;;;;;;48.83;32.67;;;1.20;99.90;;;-1.91;100.00;99367.78;4905427;28;101107;-67
2021/01/01 01:33:45;;;;;;;41.87;31.03;;;1.00;99.90;;;-1.88;100.00;99362.34;4905735;28;100976;-65
2021/01/01 01:36:15;;;;;;;49.53;34.13;;;1.00;99.90;;;-1.83;100.00;99356.78;4905277;28;100462;-66
2021/01/01 01:38:42;;;;;;;47.53;36.00;;;0.80;99.90;;;-1.78;100.00;99357.34;4906018;28;100123;-67
2021/01/01 01:41:10;;;;;;;50.87;34.97;;;0.90;99.90;;;-1.78;100.00;99359.94;4905453;28;101000;-65
2021/01/01 01:43:37;;;;;;;56.73;38.60;;;1.00;99.90;;;-1.68;100.00;99362.78;4905147;28;100684;-67
2021/01/01 01:46:04;;;;;;;59.30;40.20;;;1.10;99.90;;;-1.63;100.00;99358.09;4905334;28;99785;-65
2021/01/01 01:48:34;;;;;;;60.57;40.90;;;1.10;99.90;;;-1.46;100.00;99363.84;4917224;28;100115;-66
2021/01/01 01:51:02;;;;;;;55.10;38.37;;;1.10;99.90;;;-1.67;100.00;99354.81;4924748;28;100532;-66
2021/01/01 01:53:36;;;;;;;45.93;32.90;;;1.10;99.90;;;-1.68;100.00;99352.28;4928381;28;101227;-66
2021/01/01 01:56:03;;;;;;;41.50;30.10;;;1.20;99.90;;;-1.70;100.00;99357.63;4928481;28;100251;-65
2021/01/01 01:58:31;;;;;;;42.67;30.67;;;1.20;99.90;;;-1.70;100.00;99352.41;4928426;28;100278;-66
2021/01/01 02:00:58;;;;;;;38.63;28.33;;;1.20;99.90;;;-1.74;100.00;99352.72;4927040;28;101693;-68
2021/01/01 02:03:27;;;;;;;39.93;28.03;;;1.10;99.90;;;-1.75;100.00;99348.41;4928109;28;100177;-66
2021/01/01 02:05:54;;;;;;;42.67;28.03;;;2.00;99.90;;;-1.81;100.00;99353.13;4927853;28;99905;-66
2021/01/01 02:08:22;;;;;;;43.67;30.43;;;1.20;99.90;;;-1.83;100.00;99360.25;4928641;28;100097;-66
2021/01/01 02:10:52;;;;;;;37.93;28.90;;;1.10;99.90;;;-1.86;100.00;99355.22;4927239;28;100677;-68
2021/01/01 02:13:21;;;;;;;44.67;31.07;;;1.00;99.90;;;-1.90;100.00;99353.75;4928356;28;100525;-67
2021/01/01 02:15:50;;;;;;;44.87;31.77;;;1.00;99.90;;;-1.82;100.00;99353.22;4919373;28;100291;-65
2021/01/01 02:18:33;;;;;;;55.63;37.10;;;0.80;99.90;;;-1.80;100.00;99353.97;4909321;28;100328;-64
2021/01/01 02:21:00;;;;;;;44.63;32.90;;;0.70;99.90;;;-1.92;100.00;99353.00;4908014;28;101933;-65
2021/01/01 02:23:28;;;;;;;44.93;32.37;;;1.10;99.90;;;-1.94;100.00;99354.88;4909114;28;101325;-67
2021/01/01 02:25:56;;;;;;;43.50;31.43;;;0.70;99.90;;;-1.97;100.00;99355.09;4889658;28;100315;-66
2021/01/01 02:28:23;;;;;;;47.23;33.10;;;0.80;99.90;;;-2.04;100.00;99350.38;4890187;28;100370;-65
2021/01/01 02:30:50;;;;;;;44.60;32.60;;;0.90;99.90;;;-2.07;100.00;99359.25;4907720;28;101562;-65
2021/01/01 02:33:18;;;;;;;43.83;31.40;;;2.30;99.90;;;-2.06;100.00;99347.84;4908743;28;100723;-65
2021/01/01 02:35:45;;;;;;;42.33;30.27;;;1.80;99.90;;;-2.07;100.00;99354.03;4908240;28;100263;-65
2021/01/01 02:38:11;;;;;;;43.80;29.73;;;1.90;99.90;;;-2.07;100.00;99351.41;4908714;28;100554;-66
2021/01/01 02:40:39;;;;;;;42.43;28.40;;;0.70;99.90;;;-2.01;100.00;99351.00;4889841;28;102439;-68
2021/01/01 02:43:07;;;;;;;41.10;30.33;;;0.90;99.90;;;-2.04;100.00;99350.38;4908408;28;102651;-67
2021/01/01 02:45:34;;;;;;;40.70;29.93;;;1.70;99.90;;;-1.84;100.00;99347.25;4908510;28;100333;-66
2021/01/01 02:48:13;;;;;;;42.73;29.77;;;2.00;99.90;;;-1.85;100.00;99348.19;4908309;28;100305;-65
2021/01/01 02:50:41;;;;;;;42.37;30.73;;;0.90;99.90;;;-1.90;100.00;99347.66;4908576;28;100632;-65
2021/01/01 02:53:08;;;;;;;40.47;29.73;;;0.90;99.90;;;-1.86;100.00;99351.78;4908257;28;100776;-65
2021/01/01 02:55:35;;;;;;;39.93;29.97;;;1.00;99.90;;;-1.90;100.00;99345.03;4908091;28;100663;-66
2021/01/01 02:58:04;;;;;;;39.87;29.27;;;1.10;99.90;;;-1.72;100.00;99351.66;4908452;28;100311;-64
2021/01/01 03:00:33;;;;;;;40.70;30.27;;;1.10;99.90;;;-1.68;100.00;99347.06;4907277;28;100864;-66
2021/01/01 03:03:00;;;;;;;41.63;29.53;;;1.20;99.90;;;-1.54;100.00;99355.66;4906464;28;100990;-66
2021/01/01 03:05:27;;;;;;;42.83;30.97;;;1.20;99.90;;;-1.46;100.00;99345.47;4908373;28;100183;-67
2021/01/01 03:07:54;;;;;;;43.47;30.93;;;1.20;99.90;;;-1.56;100.00;99343.59;4908618;28;100053;-67
2021/01/01 03:10:20;;;;;;;38.97;29.00;;;1.00;99.90;;;-1.71;100.00;99352.50;4907821;28;101453;-66
2021/01/01 03:12:47;;;;;;;40.03;30.07;;;1.20;99.90;;;-1.87;100.00;99353.56;4907477;28;100499;-67
2021/01/01 03:15:16;;;;;;;40.03;29.57;;;1.10;99.90;;;-1.92;100.00;99353.00;4907397;28;100254;-66
2021/01/01 03:17:43;;;;;;;42.07;31.00;;;0.90;99.90;;;-1.97;100.00;99355.09;4910668;28;100127;-67
2021/01/01 03:20:12;;;;;;;41.83;30.03;;;1.20;99.90;;;-1.97;100.00;99354.25;4926867;28;101297;-66
2021/01/01 03:22:39;;;;;;;40.03;30.30;;;1.20;99.90;;;-2.01;100.00;99358.88;4927060;28;100673;-65
2021/01/01 03:25:08;;;;;;;42.07;30.67;;;1.10;99.90;;;-2.05;100.00;99348.69;4926912;28;100361;-66
2021/01/01 03:27:35;;;;;;;45.93;31.03;;;1.20;99.90;;;-1.97;100.00;99349.00;4927860;28;100194;-67
2021/01/01 03:30:03;;;;;;;44.07;31.30;;;1.00;99.90;;;-1.88;100.00;99349.25;4926943;28;100639;-65
2021/01/01 03:32:31;;;;;;;41.40;30.60;;;1.00;99.90;;;-1.77;100.00;99340.66;4927362;28;100585;-65
2021/01/01 03:34:58;;;;;;;49.20;33.43;;;1.10;99.90;;;-1.90;100.00;99345.03;4926311;28;100282;-67
2021/01/01 03:37:25;;;;;;;41.03;30.83;;;1.10;99.90;;;-1.84;100.00;99339.38;4927356;28;100047;-64
2021/01/01 03:39:54;;;;;;;42.50;30.77;;;1.10;99.90;;;-1.74;100.00;99350.09;4925839;28;101013;-67
2021/01/01 03:42:21;;;;;;;43.27;31.87;;;1.00;99.90;;;-1.77;100.00;99339.81;4926810;28;100760;-66
2021/01/01 03:44:48;;;;;;;42.93;32.07;;;1.00;99.90;;;-1.78;100.00;99344.22;4926830;28;99974;-66
2021/01/01 03:47:14;;;;;;;46.10;30.43;;;1.00;99.90;;;-1.61;100.00;99341.31;4911499;28;100113;-66
2021/01/01 03:49:42;;;;;;;43.57;31.47;;;1.00;99.90;;;-1.51;100.00;99341.50;4907034;28;101259;-65
2021/01/01 03:52:09;;;;;;;42.70;31.10;;;1.10;99.90;;;-1.67;100.00;99328.59;4906986;28;100305;-66
2021/01/01 03:54:35;;;;;;;39.83;29.80;;;1.10;99.90;;;-1.82;100.00;99327.84;4907290;28;100166;-66
2021/01/01 03:57:02;;;;;;;41.30;30.10;;;1.20;99.90;;;-1.78;100.00;99328.47;4907775;28;100042;-65
2021/01/01 03:59:31;;;;;;;44.47;30.00;;;1.20;99.90;;;-1.71;100.00;99326.28;4906536;28;100807;-67
2021/01/01 04:01:58;;;;;;;39.83;28.20;;;1.20;99.90;;;-1.59;100.00;99318.41;4906745;28;99949;-66
2021/01/01 04:04:25;;;;;;;37.83;27.07;;;1.30;99.90;;;-1.38;100.00;99320.50;4906454;28;100147;-67
2021/01/01 04:06:54;;;;;;;41.87;29.00;;;0.60;99.90;;;-1.58;100.00;99314.84;4922603;28;100732;-66
2021/01/01 04:09:21;;;;;;;36.87;26.37;;;1.20;99.90;;;-1.60;100.00;99321.97;4926379;28;101531;-68
2021/01/01 04:11:48;;;;;;;41.77;30.07;;;1.20;99.90;;;-1.68;100.00;99326.06;4925905;28;100217;-67
2021/01/01 04:14:15;;;;;;;42.97;30.43;;;1.20;99.90;;;-1.60;100.00;99319.34;4926867;28;99934;-67
2021/01/01 04:16:46;;;;;;;40.07;29.07;;;0.90;99.90;;;-1.47;100.00;99322.81;4926462;28;100005;-67
2021/01/01 04:19:13;;;;;;;41.50;29.87;;;1.20;99.90;;;-1.42;100.00;99324.28;4908697;28;101327;-65
2021/01/01 04:21:46;;;;;;;42.17;29.73;;;1.30;99.90;;;-1.54;100.00;99325.97;4906913;28;100605;-66
2021/01/01 04:24:15;;;;;;;38.03;26.93;;;1.30;99.90;;;-1.50;100.00;99332.69;4907329;28;100195;-66
2021/01/01 04:26:42;;;;;;;43.77;29.20;;;1.40;99.90;;;-1.43;100.00;99330.47;4906325;28;100350;-66
2021/01/01 04:29:09;;;;;;;38.20;28.20;;;1.20;99.90;;;-1.44;100.00;99334.88;4887603;28;101442;-67
2021/01/01 04:31:36;;;;;;;40.33;28.80;;;2.20;99.90;;;-1.48;100.00;99333.41;4906964;28;100499;-66
2021/01/01 04:34:04;;;;;;;43.70;30.07;;;1.40;99.90;;;-1.36;100.00;99329.94;4915897;28;99970;-68
2021/01/01 04:36:31;;;;;;;41.60;29.80;;;1.30;99.90;;;-1.34;100.00;99341.16;4925830;28;100140;-65
2021/01/01 04:38:58;;;;;;;45.00;31.30;;;1.40;99.90;;;-1.47;100.00;99342.97;4926213;28;100733;-66
2021/01/01 04:41:27;;;;;;;42.90;30.00;;;1.40;99.90;;;-1.53;100.00;99336.38;4925470;28;101496;-68
2021/01/01 04:43:54;;;;;;;44.73;29.87;;;1.40;99.90;;;-1.55;100.00;99346.13;4918183;28;100115;-66
2021/01/01 04:46:21;;;;;;;41.67;29.73;;;1.50;99.90;;;-1.46;100.00;99344.63;4926896;28;100199;-68
2021/01/01 04:48:48;;;;;;;45.37;30.43;;;1.60;99.90;;;-1.57;100.00;99348.00;4925708;28;100528;-67
2021/01/01 04:51:15;;;;;;;43.73;30.00;;;2.50;99.90;;;-1.55;100.00;99347.91;4925750;28;100301;-66
2021/01/01 04:53:42;;;;;;;41.93;30.40;;;1.50;99.90;;;-1.35;100.00;99343.88;4926437;28;100263;-66
2021/01/01 04:56:09;;;;;;;37.00;26.70;;;2.70;99.90;;;-1.13;100.00;99341.47;4925736;28;100070;-67
2021/01/01 04:58:37;;;;;;;40.87;30.50;;;1.60;99.90;;;-1.31;100.00;99358.50;4926468;28;101047;-67
2021/01/01 05:01:04;;;;;;;41.97;29.83;;;1.60;99.90;;;-1.29;100.00;99360.06;4923820;28;101384;-66
2021/01/01 05:03:31;;;;;;;41.87;29.80;;;1.70;99.90;;;-1.38;100.00;99362.50;4906346;28;100318;-67
2021/01/01 05:05:58;;;;;;;38.17;28.97;;;1.70;99.90;;;-1.33;100.00;99363.00;4906125;28;99962;-65
2021/01/01 05:08:25;;;;;;;39.47;28.07;;;1.70;99.90;;;-1.40;100.00;99361.75;4906786;28;101304;-66
2021/01/01 05:10:51;;;;;;;39.50;28.87;;;1.60;99.90;;;-1.17;100.00;99367.09;4906519;28;100705;-66
2021/01/01 05:13:19;;;;;;;41.37;29.50;;;1.60;99.90;;;-1.26;100.00;99364.28;4906582;28;100219;-66
2021/01/01 05:15:49;;;;;;;40.50;29.43;;;1.60;99.90;;;-1.20;100.00;99372.53;4906766;28;100058;-66
2021/01/01 05:18:24;;;;;;;39.33;28.17;;;1.70;99.90;;;-1.13;100.00;99379.06;4905323;28;101300;-66
2021/01/01 05:20:55;;;;;;;40.50;27.93;;;1.70;99.90;;;-1.13;100.00;99378.22;4905789;28;100646;-66
2021/01/01 05:23:26;;;;;;;40.30;29.23;;;1.70;99.90;;;-1.12;100.00;99377.28;4906432;28;100171;-65
2021/01/01 05:26:10;;;;;;;39.10;28.17;;;1.60;99.90;;;-1.13;100.00;99389.56;4905134;28;100224;-67
2021/01/01 05:28:53;;;;;;;38.03;27.60;;;1.60;99.90;;;-0.98;100.00;99377.13;4905549;28;101541;-67
2021/01/01 05:31:22;;;;;;;38.63;29.77;;;1.80;99.90;;;-1.01;100.00;99389.66;4905108;28;100428;-67
2021/01/01 05:33:55;;;;;;;38.37;26.93;;;1.80;99.90;;;-1.11;100.00;99389.44;4906236;28;100190;-67
2021/01/01 05:36:40;;;;;;;40.73;30.20;;;1.70;99.90;;;-1.14;100.00;99390.50;4909439;28;100342;-67
2021/01/01 05:39:09;;;;;;;42.13;29.10;;;1.70;99.90;;;-1.14;100.00;99382.63;4925396;28;100271;-67
2021/01/01 05:41:38;;;;;;;38.53;29.23;;;1.80;99.90;;;-1.13;100.00;99386.94;4925168;28;100970;-67
2021/01/01 05:44:14;;;;;;;43.00;30.97;;;1.90;99.90;;;-1.12;100.00;99390.41;4925017;28;100136;-67
2021/01/01 05:46:57;;;;;;;38.80;28.37;;;1.90;99.90;;;-1.05;100.00;99385.56;4925434;28;100283;-67
2021/01/01 05:49:25;;;;;;;31.57;23.40;;;1.90;99.90;;;-0.88;100.00;99382.59;4925305;28;100741;-67
2021/01/01 05:52:07;;;;;;;40.07;26.73;;;1.80;99.90;;;-0.78;100.00;99388.88;4924955;28;100682;-67
2021/01/01 05:54:34;;;;;;;32.97;24.03;;;2.10;99.90;;;-0.69;100.00;99384.75;4924781;28;100352;-67
2021/01/01 05:57:04;;;;;;;31.77;23.90;;;1.90;99.90;;;-0.64;100.00;99385.28;4923006;28;100390;-67
2021/01/01 05:59:35;;;;;;;37.93;26.10;;;1.90;99.90;;;-0.64;100.00;99393.16;4924930;28;101286;-67
2021/01/01 06:02:04;;;;;;;32.13;22.47;;;1.80;99.90;;;-0.56;100.00;99390.81;4925135;28;100378;-67
2021/01/01 06:04:31;;;;;;;34.70;22.80;;;1.80;99.90;;;-0.48;100.00;99394.56;4925378;28;100248;-67
2021/01/01 06:07:01;;;;;;;36.83;22.93;;;2.00;99.90;;;-0.58;100.00;99387.44;4925051;28;100087;-67
2021/01/01 06:09:30;;;;;;;31.57;21.70;;;2.20;99.90;;;-0.50;100.00;99396.50;4924590;28;100732;-67
2021/01/01 06:12:09;;;;;;;33.60;21.53;;;2.00;99.90;;;-0.39;100.00;99395.72;4923879;28;101475;-67
2021/01/01 06:14:39;;;;;;;33.00;20.90;;;2.00;99.90;;;-0.39;100.00;99395.72;4925118;28;100090;-67
2021/01/01 06:17:22;;;;;;;33.40;23.50;;;2.00;99.90;;;-0.50;100.00;99403.53;4925112;28;100701;-66
2021/01/01 06:19:54;;;;;;;36.73;23.93;;;2.10;99.90;;;-0.62;100.00;99399.16;4924128;28;100939;-67
2021/01/01 06:22:22;;;;;;;34.17;21.57;;;2.20;99.90;;;-0.60;100.00;99398.06;4924905;28;100559;-67
2021/01/01 06:24:52;;;;;;;34.00;21.60;;;2.10;99.90;;;-0.62;100.00;99396.53;4905722;28;100191;-67
2021/01/01 06:27:21;;;;;;;30.37;19.97;;;2.10;99.90;;;-0.58;100.00;99398.81;4905940;28;100058;-66
2021/01/01 06:29:52;;;;;;;30.17;21.07;;;2.20;99.90;;;-0.65;100.00;99400.19;4904959;28;101739;-67
2021/01/01 06:32:21;;;;;;;27.93;20.50;;;2.10;99.90;;;-0.59;100.00;99401.53;4905229;28;101360;-66
2021/01/01 06:34:50;;;;;;;25.97;18.93;;;2.30;99.90;;;-0.35;100.00;99405.03;4904124;28;100263;-66
2021/01/01 06:37:36;;;;;;;31.10;22.17;;;2.10;99.90;;;-0.39;100.00;99406.22;4905236;28;100246;-66
2021/01/01 06:40:08;;;;;;;34.03;21.43;;;2.30;99.90;;;-0.63;100.00;99407.97;4907586;28;101829;-67
2021/01/01 06:42:52;;;;;;;30.13;20.93;;;1.60;99.90;;;-0.63;100.00;99402.72;4908535;28;100431;-67
2021/01/01 06:45:39;;;;;;;31.27;21.00;;;2.50;99.90;;;-0.43;100.00;99407.38;4890172;28;100151;-66
2021/01/01 06:48:12;;;;;;;34.53;22.30;;;2.20;99.90;;;-0.63;100.00;99407.97;4908284;28;100267;-66
2021/01/01 06:50:40;;;;;;;34.20;24.80;;;2.30;99.90;;;-0.66;100.00;99414.28;4908790;28;101523;-66
2021/01/01 06:53:09;;;;;;;30.73;22.33;;;2.20;99.90;;;-0.67;100.00;99415.22;4927956;28;100603;-66
2021/01/01 06:55:38;;;;;;;30.73;21.80;;;2.30;99.90;;;-0.62;100.00;99425.41;4927982;28;100124;-66
2021/01/01 06:58:05;;;;;;;31.80;22.07;;;2.30;99.90;;;-0.75;100.00;99413.16;4927524;28;100138;-67
2021/01/01 07:00:56;;;;;;;33.63;23.57;;;2.10;99.90;;;-0.60;100.00;99424.34;4926496;28;99954;-67
2021/01/01 07:03:39;;;;;;;34.03;24.23;;;2.10;99.90;;;-0.73;100.00;99413.84;4918246;28;100322;-67
2021/01/01 07:06:35;;;;;;;32.57;24.27;;;2.40;99.90;;;-0.69;100.00;99419.75;4927648;28;99997;-67
2021/01/01 07:09:13;;;;;;;35.47;25.20;;;2.00;99.90;;;-0.73;100.00;99421.75;4927432;28;100099;-66
2021/01/01 07:11:44;;;;;;;31.07;22.00;;;2.20;99.90;;;-0.81;100.00;99431.97;4926548;28;100405;-67
2021/01/01 07:14:15;;;;;;;33.87;24.43;;;2.10;99.90;;;-0.78;100.00;99431.75;4927658;28;100902;-66
2021/01/01 07:16:45;;;;;;;30.67;22.47;;;2.10;99.90;;;-0.66;100.00;99434.47;4926680;28;99978;-67
2021/01/01 07:19:16;;;;;;;32.63;24.03;;;2.10;99.90;;;-0.59;100.00;99433.06;4921374;28;100341;-66
2021/01/01 07:21:43;;;;;;;34.10;24.90;;;2.10;99.90;;;-0.77;100.00;99438.69;4907447;28;100878;-66
2021/01/01 07:24:10;;;;;;;32.47;22.20;;;2.10;99.90;;;-0.74;100.00;99437.59;4907675;28;100578;-66
2021/01/01 07:26:36;;;;;;;36.30;23.47;;;2.10;99.90;;;-0.50;100.00;99440.31;4907637;28;100006;-67
2021/01/01 07:29:04;;;;;;;34.20;25.00;;;2.30;99.90;;;-0.58;100.00;99440.84;4908604;28;99941;-66
2021/01/01 07:31:31;;;;;;;35.17;24.30;;;2.20;99.90;;;-0.65;100.00;99439.59;4907203;28;101418;-66
2021/01/01 07:34:08;;;;;;;37.67;26.27;;;2.30;99.90;;;-0.54;100.00;99441.47;4907870;28;101216;-66
2021/01/01 07:36:36;;;;;;;33.50;23.93;;;2.20;99.90;;;-0.45;100.00;99441.66;4925436;28;100587;-66
2021/01/01 07:39:06;;;;;;;36.87;26.27;;;2.40;99.90;;;-0.45;100.00;99446.91;4927174;28;100327;-65
2021/01/01 07:41:32;;;;;;;34.43;24.67;;;2.20;99.90;;;-0.44;100.00;99448.59;4926412;28;100334;-67
2021/01/01 07:43:59;;;;;;;35.87;25.73;;;2.40;99.90;;;-0.54;100.00;99450.19;4908925;28;101042;-66
2021/01/01 07:46:26;;;;;;;35.17;24.80;;;2.30;99.90;;;-0.59;100.00;99459.34;4903829;28;100228;-66
2021/01/01 07:48:53;;;;;;;34.10;25.33;;;2.40;99.90;;;-0.52;100.00;99452.72;4945859;28;100024;-65
2021/01/01 07:51:20;;;;;;;33.07;23.97;;;2.30;99.90;;;-0.48;100.00;99462.03;4932527;28;100811;-65
2021/01/01 07:53:48;;;;;;;37.00;25.03;;;2.50;99.90;;;-0.44;100.00;99460.88;4926690;28;100242;-65
2021/01/01 07:56:14;;;;;;;32.50;21.57;;;2.50;99.90;;;-0.40;100.00;99459.72;4921908;28;100689;-66
2021/01/01 07:58:41;;;;;;;34.03;22.90;;;2.30;99.90;;;-0.37;100.00;99467.38;4924547;28;100281;-64
2021/01/01 08:01:10;;;;;;;34.03;23.63;;;2.50;99.90;;;-0.26;100.00;99466.63;4923427;28;100794;-64
2021/01/01 08:03:38;;;;;;;37.17;23.57;;;2.50;99.90;;;-0.18;100.00;99467.75;4906748;28;102788;-65
2021/01/01 08:06:06;;;;;;;36.53;22.80;;;2.50;99.90;;;-0.25;100.00;99463.91;4908063;28;100250;-64
2021/01/01 08:08:33;;;;;;;36.07;24.93;;;2.50;99.90;;;-0.19;100.00;99467.88;4924575;28;100355;-65
2021/01/01 08:11:01;;;;;;;32.90;22.30;;;2.50;99.90;;;-0.16;100.00;99468.50;4912773;28;101530;-64
2021/01/01 08:13:29;;;;;;;30.83;22.63;;;2.60;99.90;;;-0.19;100.00;99476.59;4911206;28;100768;-64
2021/01/01 08:15:57;;;;;;;32.30;22.57;;;2.40;99.90;;;-0.13;100.00;99468.28;4904336;28;100235;-64
2021/01/01 08:18:27;;;;;;;37.50;24.77;;;2.60;99.90;;;-0.11;100.00;99468.13;4904802;28;100262;-64
2021/01/01 08:20:57;;;;;;;30.37;22.37;;;3.40;99.90;;;-0.03;100.00;99473.72;4904185;28;102021;-64
2021/01/01 08:23:26;;;;;;;33.93;24.07;;;2.60;99.90;;;-0.07;100.00;99482.75;4918675;28;101123;-64
2021/01/01 08:25:54;;;;;;;31.07;21.37;;;2.60;99.90;;;-0.04;100.00;99479.91;4923148;28;100206;-64
2021/01/01 08:28:24;;;;;;;32.97;24.27;;;2.80;99.90;;;0.00;100.00;99482.19;4924393;28;100318;-65
2021/01/01 08:30:58;;;;;;;32.87;22.83;;;2.80;99.90;;;0.09;100.00;99479.88;4923135;28;100974;-66
2021/01/01 08:33:27;;;;;;;44.77;31.57;;;3.00;99.90;;;0.25;100.00;99477.78;4922714;28;101318;-64
2021/01/01 08:36:00;;;;;;;55.27;40.07;;;2.80;99.90;;;0.18;100.00;99479.19;4910309;28;100228;-64
2021/01/01 08:38:26;;;;;;;39.53;26.37;;;2.80;99.90;;;0.16;100.00;99487.19;4924204;28;100137;-65
2021/01/01 08:40:54;;;;;;;38.30;27.03;;;3.00;99.90;;;0.25;100.00;99480.41;4922599;28;100939;-66
2021/01/01 08:43:22;;;;;;;37.53;25.33;;;2.90;99.90;;;0.17;100.00;99482.75;4923546;28;100208;-65
2021/01/01 08:45:49;;;;;;;37.57;25.67;;;3.00;99.90;;;0.30;100.00;99483.53;4922020;28;100419;-65
2021/01/01 08:48:17;;;;;;;30.37;22.57;;;3.10;99.90;;;0.28;100.00;99493.34;4909217;28;100582;-64
2021/01/01 08:50:46;;;;;;;31.53;22.03;;;3.00;99.90;;;0.33;100.00;99486.81;4903722;28;100455;-65
2021/01/01 08:53:13;;;;;;;32.83;23.10;;;3.20;99.90;;;0.48;100.00;99487.47;4908722;28;99891;-65
2021/01/01 08:55:40;;;;;;;34.13;23.67;;;3.10;99.90;;;0.42;100.00;99493.16;4906028;28;100443;-65
2021/01/01 08:58:09;;;;;;;35.53;23.80;;;2.90;99.90;;;0.58;100.00;99492.88;4906139;28;100133;-65
2021/01/01 09:00:40;;;;;;;34.17;24.93;;;3.10;99.90;;;0.72;100.00;99490.06;4902841;28;101160;-66
2021/01/01 09:03:07;;;;;;;36.77;25.13;;;3.10;99.90;;;0.59;100.00;99498.03;4905588;28;100561;-66
2021/01/01 09:05:35;;;;;;;34.17;23.53;;;3.30;99.90;;;0.60;100.00;99496.25;4928907;28;99940;-67
2021/01/01 09:08:10;;;;;;;37.93;25.50;;;3.40;99.90;;;0.76;100.00;99495.91;4943952;28;100185;-64
2021/01/01 09:10:38;;;;;;;35.67;22.73;;;3.40;99.90;;;0.65;100.00;99501.97;4910609;28;100713;-65
2021/01/01 09:13:21;;;;;;;36.23;22.53;;;3.30;99.90;;;0.81;100.00;99496.41;4903725;28;100213;-66
2021/01/01 09:16:01;;;;;;;32.37;22.30;;;3.70;99.90;;;0.83;100.00;99505.88;4910158;28;100476;-65
2021/01/01 09:18:27;;;;;;;30.47;20.87;;;3.30;99.90;;;0.89;100.00;99507.19;4922910;28;100131;-65
2021/01/01 09:21:09;;;;;;;31.87;20.60;;;3.30;99.90;;;1.01;100.00;99501.84;4922578;28;101618;-65
2021/01/01 09:23:40;;;;;;;33.37;22.93;;;3.10;99.90;;;0.98;100.00;99498.63;4923372;28;100052;-65
2021/01/01 09:26:08;;;;;;;29.47;21.20;;;3.50;99.90;;;0.97;100.00;99505.69;4904576;28;100498;-65
2021/01/01 09:28:42;;;;;;;31.87;21.90;;;3.50;99.90;;;0.96;100.00;99504.00;4923358;28;100269;-65
2021/01/01 09:31:13;;;;;;;28.17;19.83;;;3.60;99.90;;;1.07;100.00;99506.66;4912087;28;100641;-65
2021/01/01 09:33:40;;;;;;;32.80;21.87;;;3.50;99.90;;;1.13;100.00;99505.34;4921570;28;100459;-65
2021/01/01 09:36:07;;;;;;;32.17;21.67;;;3.60;99.90;;;1.29;100.00;99508.47;4922370;28;100328;-66
2021/01/01 09:38:33;;;;;;;35.70;21.07;;;3.70;99.90;;;1.23;100.00;99498.44;4923271;28;100395;-65
2021/01/01 09:40:59;;;;;;;36.63;22.90;;;3.60;99.90;;;1.27;100.00;99509.53;4921653;28;100760;-65
2021/01/01 09:43:26;;;;;;;31.70;22.83;;;3.90;99.90;;;1.33;100.00;99511.72;4922422;28;100254;-65
2021/01/01 09:45:52;;;;;;;29.37;20.33;;;3.80;99.90;;;1.39;100.00;99516.50;4922542;28;100163;-66
2021/01/01 09:48:20;;;;;;;30.93;20.43;;;4.00;99.90;;;1.32;100.00;99517.94;4922873;28;99971;-66
2021/01/01 09:50:46;;;;;;;29.20;20.23;;;3.90;99.90;;;1.35;100.00;99523.00;4922216;28;101770;-66
2021/01/01 09:53:13;;;;;;;29.67;20.13;;;3.10;99.90;;;1.57;100.00;99530.06;4922908;28;100493;-65
2021/01/01 09:55:39;;;;;;;29.20;20.27;;;4.00;99.90;;;1.49;100.00;99529.81;4917797;28;100271;-66
2021/01/01 09:58:05;;;;;;;31.53;20.17;;;4.10;99.90;;;1.51;100.00;99530.53;4923100;28;100464;-66
2021/01/01 10:00:32;;;;;;;28.10;19.77;;;4.10;99.90;;;1.60;100.00;99521.94;4941868;28;101004;-65
2021/01/01 10:02:59;;;;;;;30.23;20.57;;;4.00;99.90;;;1.72;100.00;99526.25;4925446;28;101243;-65
2021/01/01 10:05:26;;;;;;;29.63;19.13;;;4.20;99.90;;;1.78;100.00;99526.56;4923005;28;100177;-67
2021/01/01 10:07:52;;;;;;;29.33;19.90;;;4.40;99.90;;;1.76;100.00;99525.00;4922775;28;100112;-65
2021/01/01 10:10:19;;;;;;;31.13;19.80;;;4.30;99.90;;;1.88;100.00;99529.31;4909071;28;100599;-67
2021/01/01 10:12:45;;;;;;;28.33;19.20;;;4.40;99.90;;;1.95;100.00;99524.41;4904740;28;100505;-68